createdAt,value
2023-02-19T00:01:47.205Z,1006.8
2023-02-19T00:11:53.258Z,1006.6
2023-02-19T00:21:59.297Z,1006.6
2023-02-19T00:32:05.398Z,1006.6
2023-02-19T00:42:11.384Z,1006.4
2023-02-19T00:52:17.457Z,1006.3
2023-02-19T01:02:23.481Z,1006.4
2023-02-19T01:12:29.552Z,1006.4
2023-02-19T01:22:35.569Z,1006.4
2023-02-19T01:32:41.645Z,1006.3
2023-02-19T01:42:47.656Z,1006.3
2023-02-19T01:52:53.742Z,1006.3
2023-02-19T02:03:00.097Z,1006.2
2023-02-19T02:13:05.839Z,1006.2
2023-02-19T02:23:11.855Z,1006.3
2023-02-19T02:33:17.944Z,1006.4
2023-02-19T02:43:23.980Z,1006.2
2023-02-19T02:53:30.023Z,1006.2
2023-02-19T03:03:36.066Z,1006.4
2023-02-19T03:13:42.086Z,1006.4
2023-02-19T03:23:48.173Z,1006.4
2023-02-19T03:33:54.199Z,1006.6
2023-02-19T03:44:00.231Z,1006.6
2023-02-19T03:54:06.273Z,1006.7
2023-02-19T04:04:12.347Z,1006.7
2023-02-19T04:14:18.394Z,1006.9
2023-02-19T04:24:24.438Z,1007
2023-02-19T04:34:30.473Z,1007.1
2023-02-19T04:44:36.508Z,1007.2
2023-02-19T04:54:42.564Z,1007.3
2023-02-19T05:04:48.631Z,1007.4
2023-02-19T05:14:54.666Z,1007.5
2023-02-19T05:25:00.781Z,1007.6
2023-02-19T05:35:06.764Z,1008
2023-02-19T05:45:12.818Z,1008
2023-02-19T05:55:18.865Z,1008.1
2023-02-19T06:05:24.907Z,1008.1
2023-02-19T06:15:30.953Z,1008.3
2023-02-19T06:25:37.004Z,1008.3
2023-02-19T06:35:43.058Z,1008.4
2023-02-19T06:45:49.131Z,1008.5
2023-02-19T06:55:55.153Z,1008.7
2023-02-19T07:06:01.184Z,1008.9
2023-02-19T07:16:08.407Z,1009.1
2023-02-19T07:26:14.397Z,1009.1
2023-02-19T07:36:20.471Z,1009.3
2023-02-19T07:46:26.533Z,1009.6
2023-02-19T07:56:32.599Z,1009.7
2023-02-19T08:06:38.615Z,1009.8
2023-02-19T08:16:44.683Z,1010
2023-02-19T08:26:50.720Z,1010.1
2023-02-19T08:36:56.753Z,1010.2
2023-02-19T08:47:02.781Z,1010.2
2023-02-19T08:57:08.849Z,1010.3
2023-02-19T09:07:14.888Z,1010.5
2023-02-19T09:17:20.972Z,1010.5
2023-02-19T09:27:26.982Z,1010.7
2023-02-19T09:37:34.188Z,1010.7
2023-02-19T09:47:39.094Z,1010.9
2023-02-19T09:57:45.117Z,1010.9
2023-02-19T10:07:51.185Z,1011.1
2023-02-19T10:17:57.232Z,1011.3
2023-02-19T10:28:03.286Z,1011.6
2023-02-19T10:38:09.347Z,1011.7
2023-02-19T10:48:15.383Z,1012
2023-02-19T10:58:21.433Z,1011.9
2023-02-19T11:08:27.479Z,1012
2023-02-19T11:18:33.514Z,1012.1
2023-02-19T11:28:39.569Z,1012.1
2023-02-19T11:38:45.598Z,1012.1
2023-02-19T11:48:51.648Z,1012.1
2023-02-19T11:59:00.419Z,1012.1
2023-02-19T12:09:03.768Z,1011.9
2023-02-19T12:19:09.827Z,1012
2023-02-19T12:29:15.869Z,1012.1
2023-02-19T12:39:21.891Z,1012.2
2023-02-19T12:49:27.973Z,1012.2
2023-02-19T12:59:33.996Z,1012.2
2023-02-19T13:09:40.049Z,1012.3
2023-02-19T13:19:46.095Z,1012.3
2023-02-19T13:29:53.325Z,1012.2
2023-02-19T13:39:58.178Z,1012.3
2023-02-19T13:50:04.238Z,1012.5
2023-02-19T14:00:10.270Z,1012.5
2023-02-19T14:10:16.333Z,1012.6
2023-02-19T14:20:22.379Z,1012.8
2023-02-19T14:30:28.552Z,1012.9
2023-02-19T14:40:34.498Z,1013
2023-02-19T14:50:40.516Z,1013
2023-02-19T15:00:46.570Z,1013
2023-02-19T15:10:52.609Z,1013
2023-02-19T15:20:58.640Z,1012.8
2023-02-19T15:31:04.718Z,1012.6
2023-02-19T15:41:11.135Z,1012.5
2023-02-19T15:51:16.800Z,1012.4
2023-02-19T16:01:22.908Z,1012.5
2023-02-19T16:11:28.887Z,1012.6
2023-02-19T16:21:34.959Z,1012.8
2023-02-19T16:31:41.131Z,1013
2023-02-19T16:41:47.047Z,1013
2023-02-19T16:51:53.086Z,1013.2
2023-02-19T17:01:59.141Z,1013.4
2023-02-19T17:12:05.181Z,1013.7
2023-02-19T17:22:11.232Z,1014
2023-02-19T17:32:17.449Z,1014.1
2023-02-19T17:42:23.329Z,1014.1
2023-02-19T17:52:29.551Z,1014.2
2023-02-19T18:02:35.450Z,1014.3
2023-02-19T18:12:41.486Z,1014.4
2023-02-19T18:22:47.535Z,1014.4
2023-02-19T18:32:53.586Z,1014.5
2023-02-19T18:42:59.642Z,1014.4
2023-02-19T18:53:05.691Z,1014.6
2023-02-19T19:03:12.225Z,1014.7
2023-02-19T19:13:17.761Z,1014.7
2023-02-19T19:23:23.826Z,1014.9
2023-02-19T19:33:30.545Z,1015
2023-02-19T19:43:35.935Z,1015
2023-02-19T19:53:41.984Z,1014.8
2023-02-19T20:03:48.030Z,1014.9
2023-02-19T20:13:55.936Z,1015.1
2023-02-19T20:24:02.014Z,1015
2023-02-19T20:34:08.045Z,1015.1
2023-02-19T20:44:14.070Z,1015.1
2023-02-19T20:54:20.120Z,1015.3
2023-02-19T21:04:26.184Z,1015.4
2023-02-19T21:14:32.215Z,1015.5
2023-02-19T21:24:38.272Z,1015.4
2023-02-19T21:34:44.343Z,1015.5
2023-02-19T21:44:50.366Z,1015.5
2023-02-19T21:54:56.407Z,1015.7
2023-02-19T22:05:03.566Z,1015.4
2023-02-19T22:15:09.639Z,1015.5
2023-02-19T22:25:15.685Z,1015.7
2023-02-19T22:35:21.732Z,1015.7
2023-02-19T22:45:27.789Z,1015.6
2023-02-19T22:55:33.811Z,1015.6
2023-02-19T23:05:40.187Z,1015.5
2023-02-19T23:15:45.932Z,1015.5
2023-02-19T23:25:51.980Z,1015.4
2023-02-19T23:35:58.032Z,1015.4
2023-02-19T23:46:04.104Z,1015.2
2023-02-19T23:56:10.274Z,1015.2
